createdAt,value
2022-08-16T00:02:31.415Z,19.68
2022-08-16T00:04:59.709Z,19.56
2022-08-16T00:07:26.341Z,19.53
2022-08-16T00:09:56.750Z,19.47
2022-08-16T00:12:24.179Z,19.51
2022-08-16T00:14:56.413Z,19.46
2022-08-16T00:17:25.162Z,19.43
2022-08-16T00:19:53.715Z,19.53
2022-08-16T00:22:25.036Z,19.54
2022-08-16T00:24:55.389Z,19.50
2022-08-16T00:27:23.181Z,19.54
2022-08-16T00:30:08.389Z,19.64
2022-08-16T00:32:41.083Z,19.63
2022-08-16T00:35:15.020Z,19.61
2022-08-16T00:37:58.271Z,19.64
2022-08-16T00:40:34.399Z,19.64
2022-08-16T00:43:19.401Z,19.74
2022-08-16T00:46:00.192Z,19.80
2022-08-16T00:48:31.508Z,19.84
2022-08-16T00:51:01.872Z,19.97
2022-08-16T00:53:30.950Z,19.97
2022-08-16T00:56:05.321Z,19.97
2022-08-16T00:58:35.349Z,19.99
2022-08-16T01:01:08.694Z,19.93
2022-08-16T01:03:41.704Z,19.94
2022-08-16T01:06:32.464Z,19.96
2022-08-16T01:09:00.152Z,19.95
2022-08-16T01:11:27.858Z,19.91
2022-08-16T01:14:09.206Z,19.89
2022-08-16T01:16:36.987Z,19.78
2022-08-16T01:19:30.689Z,19.71
2022-08-16T01:22:47.487Z,19.74
2022-08-16T01:25:02.447Z,19.92
2022-08-16T01:27:34.855Z,20.10
2022-08-16T01:30:19.301Z,20.15
2022-08-16T01:33:01.454Z,20.10
2022-08-16T01:35:37.518Z,20.02
2022-08-16T01:38:19.611Z,19.94
2022-08-16T01:40:47.017Z,19.88
2022-08-16T01:43:15.252Z,19.78
2022-08-16T01:45:42.129Z,19.81
2022-08-16T01:48:19.962Z,19.84
2022-08-16T01:51:09.115Z,19.80
2022-08-16T01:53:37.954Z,19.88
2022-08-16T01:56:07.501Z,19.97
2022-08-16T01:58:50.111Z,19.88
2022-08-16T02:01:16.982Z,19.67
2022-08-16T02:03:44.349Z,19.70
2022-08-16T02:06:33.783Z,19.73
2022-08-16T02:09:02.476Z,19.87
2022-08-16T02:11:47.316Z,19.93
2022-08-16T02:14:18.461Z,19.90
2022-08-16T02:16:48.006Z,19.76
2022-08-16T02:19:16.280Z,19.77
2022-08-16T02:22:09.248Z,19.72
2022-08-16T02:24:42.361Z,19.73
2022-08-16T02:27:12.463Z,19.61
2022-08-16T02:29:41.278Z,19.52
2022-08-16T02:32:48.992Z,19.48
2022-08-16T02:34:57.083Z,19.54
2022-08-16T02:37:23.580Z,19.51
2022-08-16T02:39:53.808Z,19.51
2022-08-16T02:42:21.417Z,19.56
2022-08-16T02:44:48.995Z,19.52
2022-08-16T02:47:24.891Z,19.47
2022-08-16T02:52:29.440Z,19.39
2022-08-16T02:54:56.713Z,19.27
2022-08-16T02:57:23.891Z,19.34
2022-08-16T02:59:50.669Z,19.31
2022-08-16T03:02:18.316Z,19.35
2022-08-16T03:04:52.568Z,19.31
2022-08-16T03:07:27.487Z,19.30
2022-08-16T03:09:54.634Z,19.28
2022-08-16T03:12:21.207Z,19.24
2022-08-16T03:14:58.544Z,19.18
2022-08-16T03:17:55.479Z,19.17
2022-08-16T03:20:31.985Z,19.19
2022-08-16T03:23:03.500Z,19.21
2022-08-16T03:25:41.086Z,19.22
2022-08-16T04:25:08.761Z,19.09
2022-08-16T04:27:53.960Z,19.09
2022-08-16T04:30:31.724Z,19.08
2022-08-16T04:33:01.531Z,19.15
2022-08-16T04:35:34.287Z,19.23
2022-08-16T04:38:10.502Z,19.22
2022-08-16T04:40:37.957Z,19.23
2022-08-16T04:43:05.623Z,19.24
2022-08-16T04:45:35.825Z,19.25
2022-08-16T04:48:04.244Z,19.22
2022-08-16T04:50:30.762Z,19.27
2022-08-16T04:52:57.798Z,19.29
2022-08-16T04:55:31.907Z,19.21
2022-08-16T04:58:43.838Z,19.21
2022-08-16T05:00:52.586Z,19.29
2022-08-16T05:03:19.603Z,19.27
2022-08-16T05:05:59.339Z,19.34
2022-08-16T05:08:32.458Z,19.32
2022-08-16T05:11:03.681Z,19.41
2022-08-16T05:13:41.027Z,19.29
2022-08-16T05:16:21.558Z,19.27
2022-08-16T05:18:50.916Z,19.33
2022-08-16T05:21:20.880Z,19.38
2022-08-16T05:23:51.846Z,19.41
2022-08-16T05:26:28.545Z,19.42
2022-08-16T05:28:59.724Z,19.43
2022-08-16T05:31:29.362Z,19.51
2022-08-16T05:33:56.624Z,19.47
2022-08-16T05:36:23.159Z,19.45
2022-08-16T05:39:01.037Z,19.49
2022-08-16T05:41:29.028Z,19.51
2022-08-16T05:44:00.239Z,19.51
2022-08-16T05:46:31.885Z,19.52
2022-08-16T05:49:06.095Z,19.53
2022-08-16T05:51:40.135Z,19.57
2022-08-16T05:54:09.623Z,19.68
2022-08-16T05:56:38.165Z,19.68
2022-08-16T05:59:06.394Z,19.75
2022-08-16T06:01:38.698Z,19.87
2022-08-16T06:04:13.600Z,19.84
2022-08-16T06:06:56.269Z,19.88
2022-08-16T06:09:37.223Z,19.90
2022-08-16T06:12:27.302Z,19.83
2022-08-16T06:15:01.647Z,19.88
2022-08-16T06:17:42.951Z,19.90
2022-08-16T06:20:24.166Z,19.95
2022-08-16T06:22:58.761Z,19.91
2022-08-16T06:25:35.974Z,19.95
2022-08-16T06:28:09.559Z,20.01
2022-08-16T06:30:43.918Z,20.19
2022-08-16T06:33:22.071Z,20.25
2022-08-16T06:35:50.599Z,20.30
2022-08-16T06:38:32.308Z,20.55
2022-08-16T06:41:03.835Z,20.76
2022-08-16T06:43:31.610Z,20.82
2022-08-16T06:45:59.559Z,20.89
2022-08-16T06:48:33.151Z,20.88
2022-08-16T06:51:00.729Z,20.98
2022-08-16T06:53:27.387Z,21.14
2022-08-16T06:55:58.748Z,21.34
2022-08-16T06:58:31.182Z,21.54
2022-08-16T07:01:00.060Z,21.66
2022-08-16T07:03:32.438Z,21.70
2022-08-16T07:05:59.930Z,21.76
2022-08-16T07:08:27.854Z,22.02
2022-08-16T07:10:55.259Z,22.06
2022-08-16T07:13:57.650Z,21.98
2022-08-16T07:16:14.462Z,21.82
2022-08-16T07:18:59.331Z,21.87
2022-08-16T07:21:46.172Z,22.14
2022-08-16T07:24:30.278Z,22.32
2022-08-16T07:26:59.047Z,22.45
2022-08-16T07:29:31.508Z,22.25
2022-08-16T07:31:59.447Z,22.34
2022-08-16T07:34:35.526Z,22.37
2022-08-16T07:37:07.340Z,22.53
2022-08-16T07:39:34.381Z,22.62
2022-08-16T07:42:20.239Z,22.81
2022-08-16T07:44:57.096Z,22.91
2022-08-16T07:47:24.761Z,23.09
2022-08-16T07:49:59.510Z,23.18
2022-08-16T07:52:29.950Z,23.29
2022-08-16T07:54:57.581Z,23.08
2022-08-16T07:57:24.588Z,23.14
2022-08-16T07:59:51.432Z,23.34
2022-08-16T08:02:20.584Z,23.32
2022-08-16T08:04:49.065Z,23.19
2022-08-16T08:07:16.250Z,23.09
2022-08-16T08:09:43.971Z,23.16
2022-08-16T08:12:31.623Z,23.19
2022-08-16T08:14:59.870Z,23.19
2022-08-16T08:17:43.217Z,23.22
2022-08-16T08:20:20.074Z,23.25
2022-08-16T08:23:00.614Z,23.36
2022-08-16T08:25:54.202Z,23.56
2022-08-16T08:28:16.312Z,24.06
2022-08-16T08:30:44.212Z,24.06
2022-08-16T08:33:19.254Z,24.03
2022-08-16T08:35:46.193Z,24.19
2022-08-16T08:38:15.820Z,24.54
2022-08-16T08:41:04.516Z,24.66
2022-08-16T08:43:30.997Z,24.66
2022-08-16T08:46:17.996Z,24.81
2022-08-16T08:49:02.137Z,24.89
2022-08-16T08:51:35.533Z,24.99
2022-08-16T08:54:06.821Z,24.82
2022-08-16T08:56:37.156Z,25.04
2022-08-16T08:59:13.091Z,25.20
2022-08-16T09:01:43.069Z,25.03
2022-08-16T09:04:25.663Z,25.33
2022-08-16T09:06:53.811Z,25.48
2022-08-16T09:09:20.845Z,25.41
2022-08-16T09:11:53.372Z,25.50
2022-08-16T09:14:23.967Z,25.67
2022-08-16T09:17:01.597Z,25.91
2022-08-16T09:19:34.323Z,25.63
2022-08-16T09:22:01.485Z,25.80
2022-08-16T09:24:51.423Z,25.86
2022-08-16T09:27:14.810Z,26.05
2022-08-16T09:29:44.969Z,25.79
2022-08-16T09:32:12.393Z,25.71
2022-08-16T09:34:51.852Z,25.69
2022-08-16T09:37:19.851Z,25.66
2022-08-16T09:39:55.962Z,25.79
2022-08-16T09:42:22.429Z,25.92
2022-08-16T09:45:11.470Z,25.99
2022-08-16T09:47:56.484Z,26.04
2022-08-16T09:50:37.307Z,26.17
2022-08-16T09:53:15.182Z,26.24
2022-08-16T09:55:49.360Z,26.39
2022-08-16T09:58:40.687Z,26.49
2022-08-16T10:01:03.596Z,26.31
2022-08-16T10:03:31.511Z,26.08
2022-08-16T10:05:58.248Z,26.02
2022-08-16T10:08:27.356Z,26.39
2022-08-16T10:11:33.272Z,26.49
2022-08-16T10:14:16.720Z,26.46
2022-08-16T10:16:48.797Z,26.69
2022-08-16T10:19:19.347Z,26.64
2022-08-16T10:21:46.453Z,26.55
2022-08-16T10:24:28.467Z,26.17
2022-08-16T10:27:18.564Z,26.44
2022-08-16T10:30:00.607Z,26.37
2022-08-16T10:32:30.554Z,26.44
2022-08-16T10:34:57.857Z,26.72
2022-08-16T10:37:35.818Z,26.81
2022-08-16T10:40:28.576Z,26.81
2022-08-16T10:42:54.171Z,26.91
2022-08-16T10:45:20.693Z,26.86
2022-08-16T10:47:49.439Z,27.13
2022-08-16T10:50:30.103Z,27.26
2022-08-16T10:52:59.405Z,27.20
2022-08-16T10:55:44.656Z,27.17
2022-08-16T10:58:14.013Z,27.09
2022-08-16T11:00:46.057Z,27.31
2022-08-16T11:06:03.236Z,27.12
2022-08-16T11:08:36.232Z,27.12
2022-08-16T11:11:10.585Z,27.27
2022-08-16T11:17:02.741Z,27.71
2022-08-16T11:19:15.437Z,27.59
2022-08-16T11:24:41.475Z,27.90
2022-08-16T11:27:20.115Z,27.78
2022-08-16T11:29:48.494Z,27.70
2022-08-16T11:32:15.367Z,27.84
2022-08-16T11:35:10.978Z,27.52
2022-08-16T11:38:23.677Z,27.40
2022-08-16T11:40:32.470Z,27.78
2022-08-16T11:43:01.567Z,27.53
2022-08-16T11:45:38.301Z,27.36
2022-08-16T11:48:07.033Z,27.55
2022-08-16T11:51:00.625Z,27.65
2022-08-16T11:53:36.087Z,27.56
2022-08-16T16:35:55.571Z,27.59
2022-08-16T16:38:26.370Z,27.35
2022-08-16T16:40:53.816Z,27.42
2022-08-16T16:43:25.961Z,27.17
2022-08-16T16:45:58.515Z,27.17
2022-08-16T16:48:29.525Z,27.21
2022-08-16T16:51:10.040Z,27.32
2022-08-16T16:53:56.117Z,27.36
2022-08-16T16:56:30.035Z,27.47
2022-08-16T16:59:02.409Z,27.56
2022-08-16T17:01:59.831Z,27.57
2022-08-16T17:04:35.540Z,27.56
2022-08-16T17:07:03.444Z,27.55
2022-08-16T17:09:31.495Z,27.52
2022-08-16T17:11:58.887Z,27.76
2022-08-16T17:14:32.847Z,27.79
2022-08-16T17:17:04.059Z,27.80
2022-08-16T17:19:31.514Z,27.54
2022-08-16T17:21:59.011Z,27.32
2022-08-16T17:24:39.247Z,27.40
2022-08-16T17:27:07.773Z,27.44
2022-08-16T17:29:34.697Z,27.30
2022-08-16T17:32:33.652Z,26.90
2022-08-16T17:35:00.566Z,26.65
2022-08-16T17:37:34.193Z,26.57
2022-08-16T17:40:25.516Z,26.40
2022-08-16T17:42:57.842Z,26.44
2022-08-16T17:45:25.360Z,26.45
2022-08-16T17:47:52.771Z,26.33
2022-08-16T17:50:19.923Z,26.23
2022-08-16T17:52:54.782Z,26.11
2022-08-16T17:55:25.697Z,25.82
2022-08-16T17:57:52.602Z,25.69
2022-08-16T18:00:25.007Z,25.76
2022-08-16T18:02:53.347Z,25.66
2022-08-16T18:05:20.359Z,25.52
2022-08-16T18:07:48.783Z,25.50
2022-08-16T18:10:18.028Z,25.52
2022-08-16T18:13:01.562Z,25.58
2022-08-16T18:15:28.836Z,25.34
2022-08-16T18:17:56.953Z,25.37
2022-08-16T18:20:43.672Z,25.46
2022-08-16T18:23:24.578Z,25.45
2022-08-16T18:25:55.267Z,25.26
2022-08-16T18:28:23.791Z,25.09
2022-08-16T18:30:52.403Z,25.00
2022-08-16T18:33:43.416Z,25.04
2022-08-16T18:36:20.688Z,25.01
2022-08-16T18:38:48.227Z,24.99
2022-08-16T18:41:14.604Z,24.98
2022-08-16T18:44:00.965Z,24.99
2022-08-16T18:46:27.518Z,24.86
2022-08-16T18:48:53.932Z,24.88
2022-08-16T18:51:24.792Z,24.81
2022-08-16T18:53:51.912Z,24.71
2022-08-16T18:56:18.399Z,24.68
2022-08-16T18:58:44.975Z,24.63
2022-08-16T19:01:11.560Z,24.62
2022-08-16T19:03:38.036Z,24.64
2022-08-16T19:06:11.331Z,24.58
2022-08-16T19:08:40.936Z,24.51
2022-08-16T19:11:11.390Z,24.56
2022-08-16T19:13:40.200Z,24.43
2022-08-16T19:16:07.073Z,24.29
2022-08-16T19:18:36.768Z,24.45
2022-08-16T19:21:04.313Z,24.46
2022-08-16T19:23:34.289Z,24.40
2022-08-16T19:26:06.067Z,24.32
2022-08-16T19:28:51.138Z,24.26
2022-08-16T19:31:28.993Z,24.18
2022-08-16T19:33:56.711Z,24.07
2022-08-16T19:36:31.173Z,24.20
2022-08-16T19:39:05.026Z,24.16
2022-08-16T19:41:37.621Z,24.08
2022-08-16T19:44:05.415Z,24.00
2022-08-16T19:46:31.922Z,23.89
2022-08-16T19:48:59.441Z,23.79
2022-08-16T19:51:25.839Z,23.74
2022-08-16T19:53:52.273Z,23.79
2022-08-16T19:56:39.234Z,23.77
2022-08-16T19:59:22.440Z,23.75
2022-08-16T20:01:52.812Z,23.64
2022-08-16T20:04:20.662Z,23.47
2022-08-16T20:06:47.206Z,23.29
2022-08-16T20:09:15.046Z,23.26
2022-08-16T20:11:42.936Z,23.21
2022-08-16T20:14:09.431Z,23.14
2022-08-16T20:16:36.130Z,22.98
2022-08-16T20:19:04.426Z,22.73
2022-08-16T20:21:31.106Z,22.68
2022-08-16T20:24:10.223Z,22.69
2022-08-16T20:26:44.826Z,22.57
2022-08-16T20:29:11.251Z,22.46
2022-08-16T20:31:38.407Z,22.43
2022-08-16T20:34:05.062Z,22.28
2022-08-16T20:36:31.962Z,22.02
2022-08-16T20:39:00.228Z,22.07
2022-08-16T20:41:27.424Z,22.14
2022-08-16T20:43:55.050Z,22.23
2022-08-16T20:46:22.087Z,22.11
2022-08-16T20:48:48.886Z,22.16
2022-08-16T20:51:15.929Z,22.29
2022-08-16T20:53:43.531Z,22.17
2022-08-16T20:56:11.420Z,22.12
2022-08-16T20:58:37.898Z,22.14
2022-08-16T21:01:05.741Z,22.10
2022-08-16T21:03:32.806Z,22.01
2022-08-16T21:06:01.878Z,21.91
2022-08-16T21:08:51.426Z,21.87
2022-08-16T21:11:16.175Z,21.83
2022-08-16T21:13:43.117Z,21.84
2022-08-16T21:16:10.159Z,22.01
2022-08-16T21:18:36.529Z,21.99
2022-08-16T21:21:02.960Z,22.02
2022-08-16T21:23:30.360Z,21.60
2022-08-16T21:25:58.720Z,21.57
2022-08-16T21:28:42.816Z,21.56
2022-08-16T21:31:11.923Z,21.48
2022-08-16T21:33:39.145Z,21.49
2022-08-16T21:36:05.956Z,21.54
2022-08-16T21:38:32.420Z,21.53
2022-08-16T21:40:59.625Z,21.46
2022-08-16T21:43:28.600Z,21.46
2022-08-16T21:45:55.737Z,21.33
2022-08-16T21:48:35.016Z,21.34
2022-08-16T21:51:08.961Z,21.21
2022-08-16T21:53:37.701Z,21.08
2022-08-16T21:56:06.229Z,20.94
2022-08-16T21:58:39.450Z,20.89
2022-08-16T22:01:10.888Z,20.90
2022-08-16T22:03:37.585Z,20.95
2022-08-16T22:06:12.201Z,20.98
2022-08-16T22:08:48.905Z,20.93
2022-08-16T22:11:17.017Z,20.85
2022-08-16T22:13:44.398Z,20.87
2022-08-16T22:16:18.169Z,20.75
2022-08-16T22:18:52.227Z,20.66
2022-08-16T22:21:19.074Z,20.67
2022-08-16T22:23:45.513Z,20.75
2022-08-16T22:26:28.994Z,20.78
2022-08-16T22:28:58.671Z,20.70
2022-08-16T22:31:25.323Z,20.55
2022-08-16T22:33:51.770Z,20.42
2022-08-16T22:36:18.192Z,20.31
2022-08-16T22:38:53.756Z,20.24
2022-08-16T22:41:23.769Z,20.18
2022-08-16T22:43:50.207Z,20.26
2022-08-16T22:46:16.713Z,20.29
2022-08-16T22:48:43.088Z,20.45
2022-08-16T22:51:10.023Z,20.40
2022-08-16T22:53:37.426Z,20.14
2022-08-16T22:56:04.530Z,19.97
2022-08-16T22:58:33.061Z,19.88
2022-08-16T23:01:05.683Z,19.80
2022-08-16T23:03:32.365Z,19.85
2022-08-16T23:06:01.613Z,20.06
2022-08-16T23:08:38.001Z,20.04
2022-08-16T23:11:12.289Z,19.77
2022-08-16T23:13:49.810Z,19.59
2022-08-16T23:16:32.535Z,19.48
2022-08-16T23:19:06.608Z,19.55
2022-08-16T23:21:33.350Z,19.63
2022-08-16T23:24:01.667Z,19.63
2022-08-16T23:26:44.976Z,19.62
2022-08-16T23:29:23.771Z,19.58
2022-08-16T23:31:55.830Z,19.52
2022-08-16T23:34:22.770Z,19.42
2022-08-16T23:36:49.214Z,19.46
2022-08-16T23:39:15.781Z,19.54
2022-08-16T23:41:43.721Z,19.50
2022-08-16T23:44:55.334Z,19.49
2022-08-16T23:46:56.901Z,19.35
2022-08-16T23:49:57.260Z,19.21
2022-08-16T23:52:10.040Z,19.14
2022-08-16T23:54:36.599Z,19.08
2022-08-16T23:57:03.253Z,19.16
2022-08-16T23:59:29.815Z,19.30
